ENFB/FBU METAR and TAF weather

Enter ICAO airport designator
Station Type Date Time Source
ENFB METAR 2021/07/24 19:50 UTC NOAA

ENFB 241950Z AUTO 15017KT 9999NDV OVC022/// 15/14 Q1016 W///S2


Station Type Date Time Source
ENFB Decoded METAR 2021/07/24 19:50 UTC NOAA

Oslo / Fornebu, Norway (ENFB) 59-54N 010-38E 17M
Jul 24, 2021 - 03:50 PM EDT / 2021.07.24 1950 UTC
Wind: from the SSE (150 degrees) at 20 MPH (17 KT):0
Sky conditions: overcast
Temperature: 59 F (15 C)
Dew Point: 57 F (14 C)
Relative Humidity: 93%
Pressure (altimeter): 30.00 in. Hg (1016 hPa)
ob: ENFB 241950Z AUTO 15017KT 9999NDV OVC022/// 15/14 Q1016 W///S2
cycle: 20

Station Type Date Time Source
ENFB TAF UTC NOAA

Error!

Example: see airport list